Time;durP1;ratioP1;P1;durP2;ratioP2;P2;SDS_P1;SDS_P2;PMS_P1;PMS_P2;Temp;Humidity;BMP_temperature;BMP_pressure;BME280_temperature;BME280_humidity;BME280_pressure;Samples;Min_cycle;Max_cycle;Signal;HPM_P1;HPM_P2
2022/09/20 00:01:23;;;;;;;0.17;0.00;;;;;;;14.31;66.50;100798.56;5000758;28;20053;-84
2022/09/20 00:03:52;;;;;;;0.15;0.00;;;;;;;14.28;68.65;100805.78;5004738;28;20038;-85
2022/09/20 00:06:20;;;;;;;0.22;0.00;;;;;;;14.22;68.44;100809.03;5030151;28;20030;-84
2022/09/20 00:08:46;;;;;;;0.30;0.00;;;;;;;14.24;67.81;100814.94;5023603;28;20057;-88
2022/09/20 00:11:27;;;;;;;0.10;0.00;;;;;;;14.25;66.44;100813.13;5005902;28;20040;-87
2022/09/20 00:13:55;;;;;;;0.08;0.00;;;;;;;14.13;68.79;100812.63;5009025;28;20037;-86
2022/09/20 00:16:24;;;;;;;0.75;0.00;;;;;;;14.01;70.78;100813.88;5009152;28;20111;-87
2022/09/20 00:18:52;;;;;;;0.22;0.00;;;;;;;13.79;73.17;100814.44;5005001;28;20037;-86
2022/09/20 00:21:21;;;;;;;0.28;0.00;;;;;;;13.54;74.85;100818.75;5005533;28;20026;-85
2022/09/20 00:23:46;;;;;;;0.30;0.10;;;;;;;13.34;76.06;100819.91;5003264;28;20299;-85
2022/09/20 00:26:12;;;;;;;1.00;0.00;;;;;;;13.15;77.76;100818.31;5006248;28;20038;-87
2022/09/20 00:28:38;;;;;;;0.10;0.00;;;;;;;12.98;79.25;100817.34;5005268;28;20029;-87
2022/09/20 00:31:04;;;;;;;1.45;0.10;;;;;;;12.83;80.70;100814.44;5008556;28;20028;-87
2022/09/20 00:36:14;;;;;;;1.27;0.00;;;;;;;12.56;83.21;100815.34;5008276;28;20044;-84
2022/09/20 00:38:40;;;;;;;0.30;0.00;;;;;;;12.44;83.38;100810.50;5004702;28;20035;-86
2022/09/20 00:41:06;;;;;;;0.20;0.00;;;;;;;12.44;81.97;100806.09;5008122;28;20026;-87
2022/09/20 00:43:37;;;;;;;1.45;0.08;;;;;;;12.39;82.16;100810.94;5006280;28;20430;-88
2022/09/20 00:46:04;;;;;;;0.30;0.10;;;;;;;12.25;82.51;100814.88;5006585;28;20085;-85
2022/09/20 00:48:31;;;;;;;0.30;0.00;;;;;;;12.36;81.66;100807.78;5003965;28;20108;-86
2022/09/20 00:51:06;;;;;;;1.88;0.10;;;;;;;12.35;82.70;100813.97;4993861;28;20117;-87
2022/09/20 00:53:43;;;;;;;0.20;0.00;;;;;;;12.15;83.97;100803.66;5002752;28;20050;-87
2022/09/20 00:56:20;;;;;;;0.22;0.10;;;;;;;12.00;85.80;100810.34;5007612;28;20034;-85
2022/09/20 00:58:58;;;;;;;0.20;0.00;;;;;;;11.82;86.84;100817.28;5004636;28;20112;-87
2022/09/20 01:01:24;;;;;;;0.30;0.10;;;;;;;11.64;87.33;100812.81;5008197;28;20117;-85
2022/09/20 01:03:49;;;;;;;0.47;0.10;;;;;;;11.52;87.70;100813.94;5005037;28;20092;-86
2022/09/20 01:06:16;;;;;;;1.40;0.10;;;;;;;11.43;88.45;100820.00;5006383;28;20125;-86
2022/09/20 01:08:47;;;;;;;0.88;0.10;;;;;;;11.33;88.95;100814.00;5005288;28;20088;-85
2022/09/20 01:11:13;;;;;;;0.60;0.00;;;;;;;11.27;90.16;100814.56;5005922;28;20041;-86
2022/09/20 01:13:38;;;;;;;1.00;0.40;;;;;;;11.19;90.57;100812.66;5021395;28;20501;-85
2022/09/20 01:16:05;;;;;;;4.60;0.20;;;;;;;11.10;90.39;100817.88;5007861;28;20034;-85
2022/09/20 01:18:32;;;;;;;0.17;0.00;;;;;;;11.02;91.02;100818.56;5003878;28;20073;-86
2022/09/20 01:21:00;;;;;;;0.30;0.00;;;;;;;11.04;90.93;100811.44;5005761;28;20437;-86
2022/09/20 01:24:02;;;;;;;0.98;0.00;;;;;;;11.04;89.13;100813.22;5005486;28;20029;-86
2022/09/20 01:26:40;;;;;;;0.40;0.10;;;;;;;11.12;90.23;100815.97;5005773;28;20818;-85
2022/09/20 01:29:24;;;;;;;0.88;0.13;;;;;;;11.12;90.13;100808.13;5019807;28;20176;-85
2022/09/20 01:31:53;;;;;;;0.10;0.05;;;;;;;10.98;90.06;100812.00;5007241;28;20779;-86
2022/09/20 01:34:28;;;;;;;1.60;0.10;;;;;;;11.08;87.17;100809.38;5006054;28;20117;-86
2022/09/20 01:37:25;;;;;;;0.40;0.10;;;;;;;11.14;83.52;100817.47;5006868;28;20034;-85
2022/09/20 01:39:54;;;;;;;1.80;0.08;;;;;;;11.18;86.99;100807.59;5001985;28;20128;-86
2022/09/20 01:42:24;;;;;;;1.50;0.10;;;;;;;11.22;88.13;100811.56;5006227;28;20087;-84
2022/09/20 01:45:01;;;;;;;3.20;0.00;;;;;;;11.21;87.53;100818.56;5007866;28;20034;-85
2022/09/20 01:47:29;;;;;;;0.50;0.10;;;;;;;11.27;86.73;100820.63;5006107;28;20120;-85
2022/09/20 01:50:06;;;;;;;0.60;0.10;;;;;;;11.32;82.12;100820.19;5023226;28;20029;-84
2022/09/20 01:53:00;;;;;;;0.32;0.10;;;;;;;11.40;84.19;100827.28;5006281;28;20034;-87
2022/09/20 01:55:47;;;;;;;0.73;0.10;;;;;;;11.45;84.62;100815.47;5008501;28;20401;-83
2022/09/20 01:58:30;;;;;;;0.75;0.00;;;;;;;11.34;85.12;100820.06;5009359;28;20121;-87
2022/09/20 02:01:20;;;;;;;0.30;0.00;;;;;;;11.27;84.99;100817.19;5024889;28;20073;-87
2022/09/20 02:03:55;;;;;;;0.68;0.10;;;;;;;11.21;85.97;100807.31;5020047;28;20069;-85
2022/09/20 02:06:42;;;;;;;1.60;0.10;;;;;;;11.15;84.20;100821.72;5007819;28;20030;-86
2022/09/20 02:09:26;;;;;;;0.50;0.10;;;;;;;11.22;87.55;100819.38;4996641;28;20044;-87
2022/09/20 02:12:09;;;;;;;2.60;0.10;;;;;;;11.07;88.38;100820.78;5006384;28;20080;-87
2022/09/20 02:14:44;;;;;;;1.17;0.10;;;;;;;11.03;89.19;100825.44;5010162;28;20145;-88
2022/09/20 02:17:15;;;;;;;0.25;0.00;;;;;;;10.93;89.73;100825.44;5011284;28;20127;-87
2022/09/20 02:19:53;;;;;;;1.25;0.00;;;;;;;10.88;89.23;100822.41;5008806;28;20037;-86
2022/09/20 02:22:28;;;;;;;3.03;0.10;;;;;;;10.92;87.66;100826.41;5008849;28;20045;-87
2022/09/20 02:25:01;;;;;;;1.67;0.40;;;;;;;10.93;88.32;100822.00;5009789;28;20037;-86
2022/09/20 02:27:57;;;;;;;3.20;0.45;;;;;;;10.89;85.09;100818.84;5007785;28;20044;-87
2022/09/20 02:30:40;;;;;;;0.20;0.00;;;;;;;10.94;86.36;100821.88;5008436;28;20049;-86
2022/09/20 02:33:50;;;;;;;1.13;0.10;;;;;;;11.00;87.27;100817.06;4991728;28;20034;-86
2022/09/20 02:36:16;;;;;;;0.75;0.10;;;;;;;10.89;90.21;100818.84;5008234;28;20038;-87
2022/09/20 02:39:26;;;;;;;1.38;0.10;;;;;;;10.89;88.26;100823.25;5021915;28;20029;-86
2022/09/20 02:42:03;;;;;;;0.55;0.10;;;;;;;10.87;84.76;100820.78;4927901;29;20208;-85
2022/09/20 02:44:49;;;;;;;0.20;0.00;;;;;;;10.86;83.74;100821.75;4928420;29;20055;-87
2022/09/20 02:47:14;;;;;;;;;;;;;;;10.83;81.86;100826.44;4927622;29;21030;-86
2022/09/20 02:50:05;;;;;;;2.37;0.23;;;;;;;10.92;82.41;100826.41;4906661;29;20013;-84
2022/09/20 02:52:49;;;;;;;1.95;0.30;;;;;;;10.97;84.17;100831.19;4923483;29;20051;-85
2022/09/20 02:55:20;;;;;;;1.00;0.10;;;;;;;11.05;82.21;100833.13;4926714;29;20071;-86
2022/09/20 02:58:10;;;;;;;1.85;0.10;;;;;;;11.13;81.27;100839.28;4917573;29;20043;-86
2022/09/20 03:00:49;;;;;;;0.93;0.08;;;;;;;11.17;81.12;100837.25;4925421;29;20048;-86
2022/09/20 03:03:30;;;;;;;1.08;0.10;;;;;;;11.18;80.53;100838.88;4908507;29;20036;-84
2022/09/20 03:06:20;;;;;;;0.80;0.10;;;;;;;11.15;80.86;100839.16;4929669;29;20938;-85
2022/09/20 03:08:45;;;;;;;0.30;0.10;;;;;;;11.11;82.90;100848.22;4926990;29;20032;-86
2022/09/20 03:11:23;;;;;;;0.63;0.03;;;;;;;11.12;82.08;100844.66;4925641;29;20119;-85
2022/09/20 03:14:10;;;;;;;0.28;0.00;;;;;;;11.08;78.76;100849.31;5003588;28;20049;-87
2022/09/20 03:17:03;;;;;;;0.20;0.00;;;;;;;11.09;79.64;100839.72;4997153;28;20374;-85
2022/09/20 03:19:51;;;;;;;1.05;0.10;;;;;;;11.05;81.39;100852.19;5004647;28;20041;-85
2022/09/20 03:22:41;;;;;;;0.15;0.00;;;;;;;10.98;79.94;100849.31;5004990;28;20038;-87
2022/09/20 03:25:48;;;;;;;0.28;0.00;;;;;;;10.95;78.91;100848.75;5006994;28;20030;-87
2022/09/20 03:28:32;;;;;;;1.20;0.10;;;;;;;10.95;81.32;100852.19;5004719;28;20175;-85
2022/09/20 03:31:12;;;;;;;0.35;0.10;;;;;;;10.94;82.33;100854.94;5006626;28;20442;-83
2022/09/20 03:33:47;;;;;;;1.38;0.13;;;;;;;10.94;81.82;100858.38;5005672;28;20045;-85
2022/09/20 03:36:31;;;;;;;0.30;0.00;;;;;;;10.92;80.67;100859.47;5007389;28;20076;-86
2022/09/20 03:39:22;;;;;;;0.30;0.00;;;;;;;10.91;82.89;100855.22;5008699;28;20033;-87
2022/09/20 03:42:06;;;;;;;0.80;0.10;;;;;;;10.87;81.77;100851.25;4993323;28;20057;-84
2022/09/20 03:44:51;;;;;;;1.08;0.10;;;;;;;10.83;82.15;100855.91;5005697;28;20034;-87
2022/09/20 03:47:41;;;;;;;0.63;0.03;;;;;;;10.78;83.09;100860.72;5004425;28;20031;-85
2022/09/20 03:50:32;;;;;;;0.20;0.00;;;;;;;10.75;81.37;100863.59;4999734;28;20119;-86
2022/09/20 03:53:25;;;;;;;2.40;0.10;;;;;;;10.70;83.47;100860.56;5009342;28;20049;-87
2022/09/20 03:56:38;;;;;;;0.40;0.08;;;;;;;10.62;82.95;100855.22;4997137;28;20116;-85
2022/09/20 03:59:39;;;;;;;2.72;0.10;;;;;;;10.52;86.04;100860.41;5003518;28;20058;-86
2022/09/20 04:02:38;;;;;;;2.55;0.20;;;;;;;10.40;85.27;100856.25;4963934;28;20049;-85
2022/09/20 04:05:17;;;;;;;1.02;0.20;;;;;;;10.38;85.06;100855.59;5010791;28;20026;-89
2022/09/20 04:08:04;;;;;;;1.38;0.10;;;;;;;10.36;85.18;100854.91;5024874;28;20030;-85
2022/09/20 04:10:42;;;;;;;0.70;0.10;;;;;;;10.33;85.54;100862.16;5031937;28;20029;-85
2022/09/20 04:13:34;;;;;;;1.67;0.20;;;;;;;10.33;84.45;100862.16;5010060;28;20041;-86
2022/09/20 04:16:13;;;;;;;0.40;0.10;;;;;;;10.34;86.18;100858.59;5004612;28;20057;-87
2022/09/20 04:18:49;;;;;;;0.70;0.10;;;;;;;10.33;85.69;100869.97;5023544;28;20038;-85
2022/09/20 04:21:36;;;;;;;0.95;0.10;;;;;;;10.25;85.81;100873.22;5006858;28;20389;-87
2022/09/20 04:24:25;;;;;;;1.83;0.20;;;;;;;10.22;88.45;100871.72;5003675;28;20038;-86
2022/09/20 04:27:21;;;;;;;1.95;0.10;;;;;;;10.15;86.46;100875.75;5003172;28;20184;-87
2022/09/20 04:30:00;;;;;;;0.30;0.10;;;;;;;10.09;86.75;100886.69;5008571;28;20026;-84
2022/09/20 04:32:42;;;;;;;2.65;0.10;;;;;;;10.10;87.56;100877.94;5007292;28;20049;-87
2022/09/20 04:38:16;;;;;;;2.72;0.10;;;;;;;10.19;87.14;100890.22;5008121;28;20069;-85
2022/09/20 04:40:54;;;;;;;1.95;0.10;;;;;;;10.18;85.09;100891.13;5003287;28;20029;-84
2022/09/20 04:43:51;;;;;;;0.43;0.10;;;;;;;10.21;84.30;100893.50;5013782;28;20065;-87
2022/09/20 04:46:28;;;;;;;;;;;;;;;10.21;82.45;100900.50;5007761;28;20038;-85
2022/09/20 04:49:09;;;;;;;2.45;0.03;;;;;;;10.22;84.22;100902.97;5006554;28;19921;-86
2022/09/20 04:52:06;;;;;;;0.85;0.08;;;;;;;10.32;85.23;100907.38;5005140;28;20128;-85
2022/09/20 04:55:09;;;;;;;2.92;0.20;;;;;;;10.32;82.42;100912.59;4992900;28;20042;-86
2022/09/20 04:58:05;;;;;;;3.97;0.10;;;;;;;10.45;84.35;100918.38;5003693;28;20041;-87
2022/09/20 05:00:55;;;;;;;0.75;0.10;;;;;;;10.43;81.96;100922.88;4966629;28;20141;-87
2022/09/20 05:03:40;;;;;;;1.27;0.10;;;;;;;10.36;84.68;100916.59;4965886;28;20031;-88
2022/09/20 05:07:06;;;;;;;0.77;0.10;;;;;;;10.26;83.21;100919.97;4977995;28;20053;-86
2022/09/20 05:09:47;;;;;;;1.85;0.10;;;;;;;10.22;85.67;100915.16;4935881;29;20039;-86
2022/09/20 05:12:24;;;;;;;1.92;0.10;;;;;;;10.22;86.15;100917.75;4947975;28;20505;-85
2022/09/20 05:15:07;;;;;;;2.20;0.40;;;;;;;10.11;84.72;100926.44;4945041;29;20050;-87
2022/09/20 05:17:42;;;;;;;0.80;0.10;;;;;;;10.07;87.39;100929.44;4946602;29;20058;-84
2022/09/20 05:20:33;;;;;;;3.08;0.30;;;;;;;10.03;85.60;100934.09;4932586;28;20031;-86
2022/09/20 05:23:19;;;;;;;6.13;0.20;;;;;;;10.04;86.18;100937.50;4943613;28;20031;-84
2022/09/20 05:25:58;;;;;;;;;;;;;;;10.01;84.14;100935.16;4944340;28;20062;-88
2022/09/20 05:28:26;;;;;;;2.30;0.20;;;;;;;10.08;87.33;100931.91;4944310;28;19922;-88
2022/09/20 05:30:59;;;;;;;1.77;0.28;;;;;;;10.14;87.95;100927.97;4945837;28;20543;-86
2022/09/20 05:33:45;;;;;;;2.47;0.20;;;;;;;10.22;87.55;100933.38;4924252;28;20039;-85
2022/09/20 05:36:29;;;;;;;8.07;0.13;;;;;;;10.19;86.16;100933.63;4942645;29;20407;-86
2022/09/20 05:39:14;;;;;;;0.60;0.17;;;;;;;10.25;88.07;100933.13;4946624;29;20494;-85
2022/09/20 05:41:55;;;;;;;3.25;0.20;;;;;;;10.21;86.82;100937.78;4927746;28;20043;-86
2022/09/20 05:44:49;;;;;;;2.33;0.28;;;;;;;10.21;86.34;100940.38;4995483;28;20053;-88
2022/09/20 05:47:22;;;;;;;10.00;0.25;;;;;;;10.24;86.91;100934.91;5009076;28;20355;-85
2022/09/20 05:50:14;;;;;;;1.33;0.10;;;;;;;10.33;85.72;100945.50;5003131;28;20472;-85
2022/09/20 05:53:09;;;;;;;2.88;0.20;;;;;;;10.36;86.68;100943.47;5004148;28;20038;-85
2022/09/20 05:55:49;;;;;;;4.15;0.20;;;;;;;10.40;87.07;100944.81;5004172;28;20030;-84
2022/09/20 05:58:37;;;;;;;0.98;0.20;;;;;;;10.51;85.18;100938.69;5005953;28;20486;-84
2022/09/20 06:01:29;;;;;;;0.57;0.10;;;;;;;10.65;84.43;100943.53;5005626;28;20064;-85
2022/09/20 06:04:16;;;;;;;0.32;0.00;;;;;;;10.79;82.63;100943.16;5003929;28;20034;-85
2022/09/20 06:06:58;;;;;;;0.40;0.10;;;;;;;10.86;80.92;100940.84;5021816;28;20065;-85
2022/09/20 06:10:02;;;;;;;6.53;0.30;;;;;;;10.91;82.65;100944.66;5022889;28;20026;-84
2022/09/20 06:13:11;;;;;;;6.82;1.00;;;;;;;10.92;80.76;100943.72;5004663;28;20061;-85
2022/09/20 06:15:44;;;;;;;3.50;0.10;;;;;;;10.97;83.68;100949.34;5006006;28;20038;-85
2022/09/20 06:18:41;;;;;;;3.47;0.28;;;;;;;11.05;81.97;100937.41;5005550;28;20108;-88
2022/09/20 06:21:35;;;;;;;3.53;0.20;;;;;;;11.18;81.29;100938.00;5004671;28;20041;-84
2022/09/20 06:24:02;;;;;;;1.50;0.10;;;;;;;11.38;82.60;100933.56;5003703;28;20276;-85
2022/09/20 06:26:35;;;;;;;1.98;0.10;;;;;;;11.39;81.98;100943.03;5006416;28;20026;-83
2022/09/20 06:29:09;;;;;;;1.83;0.05;;;;;;;11.45;81.44;100940.72;5004698;28;20049;-84
2022/09/20 06:31:34;;;;;;;0.88;0.10;;;;;;;11.54;80.30;100932.06;5010004;28;20048;-84
2022/09/20 06:34:07;;;;;;;1.08;0.10;;;;;;;11.72;80.99;100931.34;5006185;28;20038;-85
2022/09/20 06:42:22;;;;;;;0.60;0.10;;;;;;;12.07;79.73;100936.78;5006827;28;20472;-85
2022/09/20 06:44:47;;;;;;;1.60;0.35;;;;;;;12.17;79.87;100923.69;5007879;28;20030;-84
2022/09/20 06:47:14;;;;;;;3.33;0.98;;;;;;;12.23;78.13;100931.78;5009017;28;20115;-85
2022/09/20 06:49:41;;;;;;;1.52;0.10;;;;;;;12.28;78.56;100929.56;5004534;28;20041;-85
2022/09/20 06:52:11;;;;;;;0.60;0.08;;;;;;;12.45;78.04;100927.13;5003075;28;20025;-85
2022/09/20 06:54:37;;;;;;;0.95;0.10;;;;;;;12.59;77.94;100924.84;5007755;28;20040;-84
2022/09/20 06:57:05;;;;;;;2.03;0.10;;;;;;;12.64;77.37;100921.78;5010378;28;20033;-83
2022/09/20 06:59:31;;;;;;;2.90;0.10;;;;;;;12.73;76.40;100922.72;5009078;28;20101;-84
2022/09/20 07:01:57;;;;;;;1.00;0.10;;;;;;;12.76;76.03;100911.97;5005751;28;20241;-83
2022/09/20 07:04:25;;;;;;;3.03;0.10;;;;;;;12.86;74.80;100908.28;5007032;28;20100;-85
2022/09/20 07:06:51;;;;;;;0.65;0.10;;;;;;;12.90;76.11;100914.88;5005952;28;20473;-85
2022/09/20 07:09:16;;;;;;;0.70;0.10;;;;;;;12.99;75.20;100914.94;5005458;28;20057;-85
2022/09/20 07:11:43;;;;;;;1.63;0.10;;;;;;;12.98;73.34;100914.13;5002774;28;20056;-85
2022/09/20 07:14:11;;;;;;;0.28;0.10;;;;;;;13.00;74.31;100911.34;5008010;28;20152;-84
2022/09/20 07:16:39;;;;;;;5.28;0.10;;;;;;;13.09;73.61;100919.13;5009804;28;20022;-84
2022/09/20 07:19:05;;;;;;;6.90;0.20;;;;;;;13.23;74.67;100923.06;5009689;28;20029;-84
2022/09/20 07:21:31;;;;;;;4.03;0.10;;;;;;;13.31;73.17;100928.34;5022467;28;20030;-85
2022/09/20 07:23:56;;;;;;;2.20;0.10;;;;;;;13.41;73.71;100923.84;5008617;28;20044;-84
2022/09/20 07:26:27;;;;;;;3.20;0.10;;;;;;;13.56;73.13;100914.47;5020272;28;20026;-85
2022/09/20 07:28:53;;;;;;;2.92;0.47;;;;;;;13.69;71.93;100915.88;4999981;28;20069;-85
2022/09/20 07:31:20;;;;;;;0.10;0.00;;;;;;;13.79;72.14;100921.81;4995310;28;20065;-85
2022/09/20 07:33:46;;;;;;;0.22;0.08;;;;;;;13.83;72.10;100915.28;5001855;28;20033;-85
2022/09/20 07:36:12;;;;;;;1.27;0.03;;;;;;;13.94;71.93;100926.34;5021492;28;20033;-84
2022/09/20 07:38:38;;;;;;;0.47;0.10;;;;;;;14.07;72.47;100925.91;5026174;28;20501;-84
2022/09/20 07:41:04;;;;;;;3.72;0.10;;;;;;;14.23;71.29;100928.59;5005682;28;20088;-85
2022/09/20 07:43:30;;;;;;;1.55;0.10;;;;;;;14.24;70.97;100927.63;5024389;28;20432;-84
2022/09/20 07:45:56;;;;;;;3.03;0.30;;;;;;;14.32;71.13;100929.47;5024993;28;20046;-85
2022/09/20 07:48:24;;;;;;;3.78;0.10;;;;;;;14.38;69.73;100933.25;5007866;28;20037;-83
2022/09/20 07:51:11;;;;;;;2.28;0.20;;;;;;;14.41;65.68;100918.06;5004249;28;20038;-86
2022/09/20 07:53:38;;;;;;;1.33;0.20;;;;;;;14.52;70.81;100925.66;5002051;28;20633;-87
2022/09/20 07:56:10;;;;;;;2.17;0.68;;;;;;;14.62;66.78;100925.53;5007497;28;20033;-85
2022/09/20 07:58:36;;;;;;;4.25;0.20;;;;;;;14.80;69.78;100923.59;5020138;28;20116;-84
2022/09/20 08:01:08;;;;;;;7.22;0.10;;;;;;;14.97;68.19;100918.38;5006778;28;20565;-83
2022/09/20 08:03:34;;;;;;;3.35;0.10;;;;;;;15.07;69.33;100919.06;5007205;28;20026;-83
2022/09/20 08:06:01;;;;;;;1.33;0.10;;;;;;;15.11;68.68;100920.38;5005097;28;20091;-83
2022/09/20 08:08:30;;;;;;;2.63;0.20;;;;;;;15.32;68.94;100923.31;5005681;28;20105;-83
2022/09/20 08:11:14;;;;;;;2.05;0.10;;;;;;;15.33;64.62;100919.69;5003831;28;20030;-84
2022/09/20 08:13:48;;;;;;;5.43;0.10;;;;;;;15.37;66.46;100909.69;5005768;28;20056;-86
2022/09/20 08:16:14;;;;;;;1.85;0.20;;;;;;;15.52;68.25;100908.06;4993923;28;20034;-85
2022/09/20 08:18:51;;;;;;;0.77;0.00;;;;;;;15.67;65.62;100910.81;5009310;28;20088;-86
2022/09/20 08:21:20;;;;;;;1.20;0.10;;;;;;;15.72;67.66;100914.59;5000418;28;20025;-84
2022/09/20 08:23:47;;;;;;;2.70;0.13;;;;;;;15.77;67.94;100916.72;5005719;28;20061;-83
2022/09/20 08:26:17;;;;;;;3.72;0.10;;;;;;;15.70;65.79;100921.00;5026034;28;20037;-83
2022/09/20 08:28:43;;;;;;;4.07;0.17;;;;;;;15.75;67.04;100914.28;5023325;28;20065;-85
2022/09/20 08:31:19;;;;;;;0.80;0.10;;;;;;;15.83;63.42;100916.06;5008352;28;20041;-83
2022/09/20 08:33:47;;;;;;;0.80;0.10;;;;;;;15.90;66.05;100915.22;4996675;28;20152;-87
2022/09/20 08:36:16;;;;;;;1.58;0.10;;;;;;;15.98;66.61;100917.00;5011086;28;20128;-83
2022/09/20 08:38:42;;;;;;;0.30;0.00;;;;;;;16.04;65.30;100916.34;5018801;28;20052;-84
2022/09/20 08:41:11;;;;;;;2.00;0.10;;;;;;;16.19;64.85;100919.88;5018999;28;20026;-81
2022/09/20 08:43:41;;;;;;;1.10;0.10;;;;;;;16.20;64.69;100918.91;5033449;28;20037;-83
2022/09/20 08:46:14;;;;;;;0.88;0.10;;;;;;;16.21;64.81;100920.53;5044818;28;20076;-83
2022/09/20 08:48:40;;;;;;;2.60;0.10;;;;;;;16.30;65.26;100912.63;5002705;28;20065;-84
2022/09/20 08:51:11;;;;;;;0.93;0.00;;;;;;;16.39;64.66;100908.97;4995834;28;20050;-84
2022/09/20 08:53:45;;;;;;;3.78;0.10;;;;;;;16.40;63.44;100910.63;5006110;28;20038;-83
2022/09/20 08:56:11;;;;;;;1.65;0.00;;;;;;;16.46;67.62;100913.38;5004663;28;20030;-83
2022/09/20 08:58:38;;;;;;;5.97;0.25;;;;;;;16.47;69.01;100906.31;5007304;28;20108;-83
2022/09/20 09:01:05;;;;;;;5.38;0.10;;;;;;;16.39;69.66;100901.91;4999859;28;20032;-85
2022/09/20 09:03:32;;;;;;;4.22;0.10;;;;;;;16.44;69.63;100896.94;5004975;28;20141;-83
2022/09/20 09:06:00;;;;;;;0.70;0.28;;;;;;;16.60;70.30;100903.91;4998260;28;20041;-84
2022/09/20 09:08:33;;;;;;;1.00;0.10;;;;;;;16.52;69.51;100906.63;5006839;28;20072;-85
2022/09/20 09:11:08;;;;;;;1.10;0.10;;;;;;;16.47;69.66;100895.78;5007234;28;20030;-85
2022/09/20 09:13:52;;;;;;;2.83;0.10;;;;;;;16.40;68.83;100894.84;5006667;28;20456;-85
2022/09/20 09:16:19;;;;;;;0.28;0.00;;;;;;;16.43;70.38;100891.88;5007796;28;20124;-82
2022/09/20 09:18:48;;;;;;;2.75;0.10;;;;;;;16.44;68.21;100888.25;5009112;28;20037;-83
2022/09/20 09:21:23;;;;;;;1.30;0.00;;;;;;;16.57;66.55;100888.47;5011981;28;20034;-84
2022/09/20 09:24:18;;;;;;;0.35;0.00;;;;;;;16.59;65.07;100881.22;5012087;28;20083;-83
2022/09/20 09:26:43;;;;;;;1.45;0.20;;;;;;;16.61;68.63;100874.00;5011006;28;20053;-85
2022/09/20 09:29:16;;;;;;;0.40;0.00;;;;;;;16.60;66.82;100877.59;5012046;28;20026;-85
2022/09/20 09:31:44;;;;;;;0.00;0.00;;;;;;;16.66;65.68;100871.69;5011927;28;20040;-85
2022/09/20 09:34:28;;;;;;;0.10;0.00;;;;;;;16.65;61.34;100866.59;5010281;28;20111;-83
2022/09/20 09:36:54;;;;;;;0.60;0.00;;;;;;;16.70;62.86;100862.47;5010456;28;20034;-85
2022/09/20 09:39:27;;;;;;;0.20;0.00;;;;;;;16.68;63.02;100867.06;5011219;28;20022;-83
2022/09/20 09:41:53;;;;;;;0.20;0.00;;;;;;;16.69;61.79;100858.19;5012323;28;20038;-85
2022/09/20 09:44:18;;;;;;;0.20;0.03;;;;;;;16.75;60.84;100846.97;5010784;28;20029;-83
2022/09/20 09:46:44;;;;;;;0.20;0.00;;;;;;;16.75;59.78;100848.78;5009112;28;20045;-83
2022/09/20 09:49:17;;;;;;;0.63;0.00;;;;;;;16.81;58.56;100848.91;5012148;28;20042;-84
2022/09/20 09:52:05;;;;;;;0.20;0.00;;;;;;;16.88;56.37;100849.03;5030998;28;20393;-85
2022/09/20 09:54:53;;;;;;;0.25;0.00;;;;;;;16.77;54.59;100839.72;5012321;28;20042;-82
2022/09/20 09:57:34;;;;;;;0.00;0.00;;;;;;;16.74;56.44;100845.31;5000415;28;20385;-83
2022/09/20 10:00:23;;;;;;;0.30;0.00;;;;;;;16.67;52.72;100839.13;5008900;28;20119;-82
2022/09/20 10:03:06;;;;;;;0.10;0.00;;;;;;;16.63;54.05;100843.06;5023274;28;20026;-82
2022/09/20 10:05:46;;;;;;;1.65;0.08;;;;;;;16.72;53.89;100839.41;5031263;28;20038;-83
2022/09/20 10:08:19;;;;;;;0.05;0.00;;;;;;;16.78;54.17;100837.91;5012297;28;20145;-84
2022/09/20 10:11:19;;;;;;;0.17;0.00;;;;;;;17.00;50.86;100841.53;5003572;28;20038;-84
2022/09/20 10:14:02;;;;;;;0.00;0.00;;;;;;;17.15;45.39;100831.84;5005793;28;20073;-82
2022/09/20 10:16:46;;;;;;;2.17;0.10;;;;;;;17.37;46.59;100827.53;5008165;28;20022;-82
2022/09/20 10:19:14;;;;;;;0.08;0.00;;;;;;;17.35;48.87;100814.53;5005017;28;20041;-84
2022/09/20 10:22:04;;;;;;;0.00;0.00;;;;;;;17.24;50.27;100818.41;5002410;28;20393;-84
2022/09/20 10:25:00;;;;;;;0.52;0.00;;;;;;;17.21;49.17;100818.78;4992085;28;20030;-85
2022/09/20 10:27:37;;;;;;;0.20;0.00;;;;;;;17.24;48.42;100815.78;4993479;28;20456;-83
2022/09/20 10:30:07;;;;;;;0.10;0.00;;;;;;;17.62;46.80;100817.53;4998299;28;20121;-84
2022/09/20 10:32:42;;;;;;;0.32;0.10;;;;;;;17.95;43.07;100812.75;5009106;28;20033;-84
2022/09/20 10:35:19;;;;;;;0.15;0.00;;;;;;;18.05;40.21;100816.69;5023885;28;20035;-83
2022/09/20 10:37:57;;;;;;;0.00;0.00;;;;;;;18.10;42.58;100818.78;5017102;28;20041;-84
2022/09/20 10:43:13;;;;;;;0.45;0.00;;;;;;;17.92;42.97;100815.75;5005904;28;20046;-81
2022/09/20 10:43:40;;;;;;;0.20;0.00;;;;;;;17.84;39.66;100819.28;5008653;28;20049;-85
2022/09/20 10:46:08;;;;;;;0.00;0.00;;;;;;;17.83;44.25;100818.47;5004626;28;20058;-83
2022/09/20 10:48:48;;;;;;;0.93;0.00;;;;;;;17.85;42.62;100810.38;5008304;28;20547;-85
2022/09/20 10:51:16;;;;;;;0.00;0.00;;;;;;;17.99;43.99;100808.72;5011878;28;20033;-83
2022/09/20 10:53:45;;;;;;;0.00;0.00;;;;;;;18.20;44.17;100817.50;5008716;28;20042;-85
2022/09/20 10:56:32;;;;;;;0.63;0.00;;;;;;;18.18;40.77;100816.88;5006793;28;20045;-84
2022/09/20 10:59:00;;;;;;;0.03;0.00;;;;;;;18.24;43.55;100805.59;5007777;28;20059;-85
2022/09/20 11:01:47;;;;;;;0.00;0.00;;;;;;;18.19;39.56;100807.13;5004473;28;20030;-81
2022/09/20 11:04:31;;;;;;;0.00;0.00;;;;;;;18.19;42.74;100810.59;5007714;28;20180;-86
2022/09/20 11:07:16;;;;;;;0.00;0.00;;;;;;;18.27;44.89;100811.50;5023983;28;20363;-84
2022/09/20 11:09:57;;;;;;;0.00;0.00;;;;;;;18.20;44.62;100801.69;5014767;28;20489;-84
2022/09/20 11:12:37;;;;;;;0.00;0.00;;;;;;;18.03;47.61;100802.88;5009032;28;20105;-85
2022/09/20 11:15:14;;;;;;;0.00;0.00;;;;;;;18.03;47.52;100794.97;5006701;28;20061;-84
2022/09/20 11:17:44;;;;;;;0.03;0.00;;;;;;;18.22;46.19;100796.22;5008791;28;20551;-85
2022/09/20 11:20:17;;;;;;;0.00;0.00;;;;;;;18.33;46.55;100794.91;5006253;28;20466;-83
2022/09/20 11:22:48;;;;;;;2.45;0.00;;;;;;;18.23;44.78;100796.03;5001776;28;20052;-85
2022/09/20 11:25:20;;;;;;;0.35;0.00;;;;;;;18.10;46.69;100795.88;5006231;28;20030;-84
2022/09/20 11:27:52;;;;;;;0.52;0.00;;;;;;;17.98;46.68;100797.34;5022058;28;20029;-85
2022/09/20 11:30:20;;;;;;;0.20;0.00;;;;;;;18.03;46.41;100794.16;5007641;28;20505;-83
2022/09/20 11:32:52;;;;;;;0.10;0.00;;;;;;;18.10;47.88;100792.41;5006226;28;20032;-84
2022/09/20 11:35:31;;;;;;;0.08;0.00;;;;;;;18.20;45.69;100796.41;5006200;28;20037;-84
2022/09/20 11:38:12;;;;;;;1.08;0.00;;;;;;;18.22;46.29;100797.03;5008232;28;20029;-84
2022/09/20 11:40:48;;;;;;;0.22;0.00;;;;;;;18.21;48.47;100784.84;5006416;28;20029;-84
2022/09/20 11:43:15;;;;;;;;;;;;;;;18.02;42.93;100789.88;5001042;28;20529;-84
2022/09/20 11:45:43;;;;;;;0.10;0.00;;;;;;;18.00;50.55;100787.44;4995323;28;19921;-83
2022/09/20 11:48:24;;;;;;;0.00;0.00;;;;;;;18.07;49.60;100787.53;5002126;28;20581;-86
2022/09/20 11:51:02;;;;;;;0.50;0.00;;;;;;;18.07;50.51;100784.88;5009589;28;20494;-85
2022/09/20 11:53:54;;;;;;;0.08;0.00;;;;;;;18.09;48.74;100781.06;5027816;28;20030;-84
2022/09/20 11:56:30;;;;;;;0.20;0.00;;;;;;;18.10;49.92;100780.06;5008416;28;20445;-84
2022/09/20 11:59:01;;;;;;;0.82;0.00;;;;;;;18.16;51.11;100774.03;5008898;28;20041;-84
2022/09/20 12:01:31;;;;;;;1.40;0.00;;;;;;;18.19;50.64;100770.22;5004984;28;20037;-83
2022/09/20 12:04:06;;;;;;;0.10;0.00;;;;;;;18.17;49.76;100767.75;5001433;28;20536;-83
2022/09/20 12:06:37;;;;;;;0.08;0.00;;;;;;;18.19;50.11;100771.03;5006730;28;20175;-84
2022/09/20 12:09:21;;;;;;;0.20;0.00;;;;;;;18.36;50.40;100765.53;5007502;28;20029;-85
2022/09/20 12:11:47;;;;;;;0.28;0.00;;;;;;;18.31;49.00;100760.00;5007886;28;20072;-85
2022/09/20 12:14:21;;;;;;;0.65;0.00;;;;;;;18.34;46.68;100757.00;5005069;28;20061;-85
2022/09/20 12:16:48;;;;;;;1.40;0.00;;;;;;;18.45;47.85;100759.09;4993631;28;20088;-84
2022/09/20 12:19:35;;;;;;;0.47;0.00;;;;;;;18.62;39.76;100755.25;5007731;28;20122;-83
2022/09/20 12:22:02;;;;;;;0.00;0.00;;;;;;;18.61;44.99;100753.59;5008490;28;20046;-84
2022/09/20 12:24:36;;;;;;;0.00;0.00;;;;;;;18.45;44.78;100752.00;5008619;28;20117;-83